Country
Station

 

Weather  for  Sandspit, B. C.  -  Canada    Canada

  
7 °C (45 °F)
    
 
 

Current METAR for Sandspit, B. C. is :

CYZP 211200Z AUTO 17006KT 9SM CLR 07/06 A2990 RMK SLP125

 

This is a report for Sandspit, B. C. - Canada.
 
The report was made 55 minutes ago, at 12:00 UTC .
The wind was blowing at a speed of 3.1 meters per second (6.9 miles per hour) from south (170°).
 
The temperature was 7 °C (45 °F), with a dew-point at 6 °C (43 °F).
The atmospheric pressure was 1013 hPa (29.90 inHg).
The relative humidity was 93.3%.
 
The sky was clear.
 
The overall visibility was 14.5 kilometers (9.0 miles).
 

 
 
 
 

Country :   A   B   C   D   E   F   G   H   I   J   K   L   M   N   O   P   Q   R   S   T   U   V   W   Y   Z

 

Site Info  |  Disclaimer  |  Credits  |  Privacy
Contact us  |  Add to favorites
© 2013-2020 METARs - All rights reserved